Latest Weather Observations for Lake Grace

IDW60801

Issued at 7:05 pm WST Wednesday 30 July 2014 (issued every 30 minutes, with the page automatically refreshed every 10 minutes)

About weather observations | Map of weather stations | Latest weather observations for WA | Other Formats
Station Details ID: 010911 Name: LAKE GRACE Lat: -33.10 Lon: 118.46 Height: 286.0 m
Data from the previous 72 hours. | See also: Recent months at Lake Grace
Date/Time
WST
Temp
°C
App
Temp
°C
Dew
Point
Rel
Hum
%
Delta-T
°C
Wind Press
QNH
hPa
Press
MSL
hPa
Rain
since 9 am
mm
Dir
 
Spd
km/h
Gust
km/h
Spd
kts
Gust
kts
30/07:00pm 13.9 10.5 9.1 73 2.5 W 17 24 9 13 1019.5 1019.7 0.0
30/06:30pm 14.1 10.3 8.9 71 2.7 WNW 19 24 10 13 1019.3 - 0.0
30/06:00pm 14.2 10.4 9.0 71 2.7 WNW 19 24 10 13 1018.9 1019.1 0.0
30/05:30pm 14.7 10.9 8.9 68 3.0 W 19 28 10 15 1018.8 - 0.0
30/05:00pm 15.9 11.4 8.6 62 3.8 W 22 41 12 22 1018.7 1018.9 0.0
30/04:30pm 16.1 12.0 8.8 62 3.8 W 20 30 11 16 1018.5 - 0.0
30/04:00pm 16.2 11.1 9.2 63 3.7 W 26 35 14 19 1018.3 1018.5 0.0
30/03:30pm 17.1 12.9 9.8 62 3.9 W 22 35 12 19 1018.1 - 0.0
30/03:00pm 16.5 12.5 9.2 62 3.8 W 20 33 11 18 1018.1 1018.3 0.0
30/02:30pm 16.1 12.3 9.8 66 3.3 W 20 28 11 15 1018.1 - 0.0
30/02:00pm 16.0 11.7 9.4 65 3.5 W 22 35 12 19 1018.2 1018.4 0.0
30/01:30pm 16.5 11.1 9.4 63 3.7 W 28 41 15 22 1018.3 - 0.0
30/01:00pm 15.8 11.5 9.5 66 3.3 W 22 30 12 16 1018.5 1018.7 0.0
30/12:30pm 15.6 10.9 9.1 65 3.4 WNW 24 37 13 20 1018.8 - 0.0
30/12:00pm 15.2 9.6 8.7 65 3.3 W 28 37 15 20 1019.3 1019.5 0.0
30/11:30am 15.2 10.0 8.9 66 3.3 W 26 39 14 21 1019.6 - 0.0
30/11:00am 14.9 9.6 8.6 66 3.2 WNW 26 41 14 22 1019.9 1020.2 0.0
30/10:30am 14.6 8.9 8.3 66 3.2 WNW 28 39 15 21 1020.2 - 0.0
30/10:00am 14.2 9.8 8.8 70 2.8 WNW 22 32 12 17 1020.7 1020.9 0.0
30/09:30am 13.7 9.6 8.7 72 2.6 WNW 20 35 11 19 1020.8 - 0.0
30/09:00am 13.0 10.1 9.6 80 1.8 NNW 15 24 8 13 1020.7 1020.9 0.0
30/08:30am 12.5 9.5 9.3 81 1.6 NNW 15 19 8 10 1020.6 - 0.0
30/08:00am 12.2 9.9 9.0 81 1.6 NW 11 15 6 8 1020.4 1020.7 0.0
30/07:30am 11.8 9.8 8.8 82 1.5 NW 9 13 5 7 1020.4 - 0.0
30/07:00am 11.8 9.4 8.8 82 1.5 NW 11 19 6 10 1020.3 1020.6 0.0
30/06:30am 11.8 9.1 8.8 82 1.5 NW 13 17 7 9 1020.4 - 0.0
30/06:00am 11.2 8.9 8.9 86 1.2 NNW 11 15 6 8 1020.1 1020.4 0.0
30/05:30am 11.3 8.9 8.7 84 1.3 NNW 11 15 6 8 1020.0 - 0.0
30/05:00am 12.0 9.2 8.7 80 1.7 WNW 13 19 7 10 1019.8 1020.0 0.0
30/04:30am 12.0 9.3 8.8 81 1.6 NW 13 17 7 9 1020.0 - 0.0
30/04:00am 12.1 9.0 8.9 81 1.6 WNW 15 20 8 11 1020.1 1020.4 0.0
30/03:30am 12.1 9.1 9.1 82 1.5 NW 15 20 8 11 1020.3 - 0.0
30/03:00am 12.0 8.6 9.0 82 1.5 NW 17 24 9 13 1020.6 1020.8 0.0
30/02:30am 12.1 8.4 9.3 83 1.4 WNW 19 28 10 15 1020.8 - 0.0
30/02:00am 11.3 8.8 9.7 90 0.8 NW 13 20 7 11 1021.0 1021.2 0.0
30/01:30am 11.2 8.3 9.8 91 0.7 NNW 15 20 8 11 1021.3 - 0.0
30/01:00am 11.0 8.1 9.6 91 0.7 NNW 15 20 8 11 1021.5 1021.7 0.0
30/12:30am 10.8 8.3 9.7 93 0.6 NNW 13 19 7 10 1021.6 - 0.0
30/12:00am 9.5 7.1 8.6 94 0.4 N 11 15 6 8 1021.6 1021.8 0.0
 
Date/Time
WST
Temp
°C
App
Temp
°C
Dew
Point
Rel
Hum
%
Delta-T
°C
Wind Press
QNH
hPa
Press
MSL
hPa
Rain
since 9 am
mm
Dir
 
Spd
km/h
Gust
km/h
Spd
kts
Gust
kts
29/11:30pm 9.2 7.5 8.3 94 0.4 N 7 13 4 7 1021.6 - 0.0
29/11:00pm 8.5 6.2 7.4 93 0.5 NNW 9 11 5 6 1021.7 1021.9 0.0
29/10:30pm 9.0 6.8 7.9 93 0.5 NNW 9 13 5 7 1021.8 - 0.0
29/10:00pm 9.0 6.9 8.1 94 0.4 NNW 9 13 5 7 1021.8 1022.0 0.0
29/09:30pm 9.4 7.7 8.3 93 0.5 NNW 7 11 4 6 1021.8 - 0.0
29/09:00pm 10.0 8.1 8.9 93 0.5 NNW 9 13 5 7 1021.9 1022.1 0.0
29/08:30pm 10.0 8.4 8.8 92 0.6 NNW 7 11 4 6 1021.9 - 0.0
29/08:00pm 10.3 8.7 8.6 89 0.8 NNW 7 9 4 5 1021.9 1022.1 0.0
29/07:30pm 12.4 10.7 10.0 85 1.2 NNW 9 11 5 6 1021.9 - 0.0
29/07:00pm 13.6 11.7 10.4 81 1.7 NW 11 19 6 10 1022.1 1022.3 0.0
29/06:30pm 13.8 11.5 10.4 80 1.8 NNW 13 17 7 9 1021.9 - 0.0
29/06:00pm 14.4 12.7 9.8 74 2.4 NW 9 13 5 7 1021.7 1021.9 0.0
29/05:30pm 14.8 12.8 10.0 73 2.5 NW 11 15 6 8 1021.4 - 0.0
29/05:00pm 15.3 13.2 9.7 69 2.9 WNW 11 15 6 8 1021.1 1021.3 0.0
29/04:30pm 15.5 12.5 9.4 67 3.2 NW 15 20 8 11 1021.2 - 0.0
29/04:00pm 15.6 12.9 9.1 65 3.4 WNW 13 19 7 10 1021.4 1021.6 0.0
29/03:30pm 15.7 12.1 8.4 62 3.8 WNW 17 24 9 13 1021.5 - 0.0
29/03:00pm 15.7 11.6 8.7 63 3.6 WNW 20 28 11 15 1021.4 1021.6 0.0
29/02:30pm 15.7 11.5 8.2 61 3.8 WNW 20 28 11 15 1021.2 - 0.0
29/02:00pm 15.9 12.0 8.6 62 3.8 WNW 19 30 10 16 1021.1 1021.3 0.0
29/01:30pm 16.6 12.8 9.1 61 3.9 WNW 19 28 10 15 1021.1 - 0.0
29/01:00pm 16.1 12.4 9.3 64 3.6 W 19 28 10 15 1021.5 1021.7 0.0
29/12:30pm 15.5 11.5 10.5 72 2.7 W 22 32 12 17 1022.1 - 0.0
29/12:00pm 15.8 12.2 10.6 71 2.8 W 20 30 11 16 1022.6 1022.8 0.0
29/11:30am 15.1 12.2 10.9 76 2.3 W 17 24 9 13 1022.9 - 0.0
29/11:00am 15.0 11.5 10.8 76 2.2 WSW 20 28 11 15 1023.0 1023.3 0.0
29/10:30am 15.2 12.2 11.8 80 1.9 W 19 28 10 15 1023.0 - 0.0
29/10:00am 14.3 11.8 12.2 87 1.1 WNW 17 24 9 13 1023.2 1023.5 0.0
29/09:30am 12.9 11.1 12.0 94 0.5 NW 13 20 7 11 1023.2 - 0.0
29/09:00am 12.3 10.7 11.5 95 0.4 WNW 11 17 6 9 1023.2 1023.5 0.6
29/08:30am 12.0 10.0 11.4 96 0.3 WNW 13 19 7 10 1022.9 - 0.6
29/08:00am 11.7 10.0 11.1 96 0.3 NW 11 17 6 9 1022.7 1022.9 0.6
29/07:30am 11.6 9.0 10.8 95 0.4 WNW 15 26 8 14 1022.4 - 0.6
29/07:00am 11.7 8.7 10.8 94 0.5 WNW 17 24 9 13 1022.0 1022.2 0.2
29/06:30am 11.2 9.2 10.3 94 0.5 NW 11 17 6 9 1021.9 - 0.2
29/06:00am 11.2 9.2 10.1 93 0.6 NW 11 15 6 8 1021.7 1021.9 0.2
29/05:30am 11.4 9.4 10.3 93 0.6 NW 11 15 6 8 1021.5 - 0.2
29/05:00am 11.4 9.4 10.3 93 0.6 WNW 11 17 6 9 1021.5 1021.7 0.2
29/04:30am 11.6 8.6 10.5 93 0.6 W 17 24 9 13 1021.5 - 0.2
29/04:00am 11.3 8.2 10.4 94 0.5 W 17 28 9 15 1021.4 1021.6 0.2
29/03:30am 10.9 7.4 10.1 95 0.4 NW 19 35 10 19 1021.0 - 0.2
29/03:00am 10.5 7.6 9.7 95 0.4 NW 15 20 8 11 1020.9 1021.1 0.2
29/02:30am 10.2 8.0 9.4 95 0.4 NW 11 15 6 8 1020.9 - 0.2
29/02:00am 10.6 8.1 9.8 95 0.4 NW 13 19 7 10 1021.1 1021.3 0.2
29/01:30am 10.6 8.1 9.8 95 0.4 NW 13 19 7 10 1021.3 - 0.2
29/01:00am 10.2 7.2 9.3 94 0.5 NW 15 20 8 11 1021.5 1021.7 0.2
29/12:30am 10.6 8.0 9.5 93 0.6 NW 13 17 7 9 1021.6 - 0.2
29/12:00am 11.1 8.7 10.0 93 0.6 NW 13 22 7 12 1021.5 1021.7 0.2
 
Date/Time
WST
Temp
°C
App
Temp
°C
Dew
Point
Rel
Hum
%
Delta-T
°C
Wind Press
QNH
hPa
Press
MSL
hPa
Rain
since 9 am
mm
Dir
 
Spd
km/h
Gust
km/h
Spd
kts
Gust
kts
28/11:30pm 11.1 9.1 10.0 93 0.6 NW 11 19 6 10 1021.5 - 0.2
28/11:00pm 11.5 9.1 10.2 92 0.7 NW 13 17 7 9 1021.9 1022.1 0.2
28/10:30pm 12.0 9.4 10.6 91 0.7 WNW 15 19 8 10 1022.0 - 0.2
28/10:00pm 12.2 9.7 10.9 92 0.7 NW 15 20 8 11 1021.9 1022.1 0.2
28/09:30pm 12.4 8.9 11.0 91 0.7 WNW 20 30 11 16 1022.1 - 0.2
28/09:00pm 12.7 10.6 11.1 90 0.8 W 13 19 7 10 1022.2 1022.4 0.2
28/08:30pm 12.6 10.5 11.0 90 0.9 WNW 13 19 7 10 1022.0 - 0.2
28/08:00pm 13.6 11.3 10.4 81 1.7 WNW 13 20 7 11 1022.0 1022.2 0.2
28/07:30pm 13.9 10.7 9.9 77 2.1 WNW 17 26 9 14 1021.8 - 0.2
28/07:00pm 14.2 11.0 10.0 76 2.2 W 17 26 9 14 1021.6 1021.8 0.2
28/06:30pm 14.4 12.3 9.8 74 2.4 WNW 11 15 6 8 1021.2 - 0.2
28/06:00pm 14.6 12.5 9.6 72 2.6 WNW 11 17 6 9 1021.0 1021.2 0.2
28/05:30pm 15.0 11.7 9.4 69 2.9 WNW 17 24 9 13 1020.6 - 0.2
28/05:00pm 15.8 12.4 9.2 65 3.4 W 17 24 9 13 1020.2 1020.5 0.2
28/04:30pm 16.2 12.4 9.8 66 3.4 W 20 32 11 17 1020.2 - 0.2
28/04:00pm 16.5 12.7 9.7 64 3.6 W 20 32 11 17 1019.7 1019.9 0.2
28/03:30pm 16.8 12.7 10.0 64 3.6 W 22 30 12 16 1019.5 - 0.2
28/03:00pm 16.5 11.6 9.9 65 3.5 W 26 43 14 23 1019.5 1019.7 0.2
28/02:30pm 16.8 12.3 10.2 65 3.5 WNW 24 32 13 17 1019.2 - 0.2
28/02:00pm 17.3 12.2 9.2 59 4.3 WNW 26 37 14 20 1019.4 1019.6 0.2
28/01:30pm 16.9 11.9 9.6 62 3.9 WNW 26 39 14 21 1019.7 - 0.2
28/01:00pm 16.3 11.0 9.7 65 3.5 W 28 43 15 23 1020.0 1020.3 0.2
28/12:30pm 15.9 11.3 9.8 67 3.2 W 24 37 13 20 1020.7 - 0.2
28/12:17pm 15.6 10.1 9.3 66 3.3 W 28 46 15 25 1020.9 - 0.2
28/12:00pm 15.9 11.8 10.2 69 3.0 W 22 35 12 19 1021.1 1021.3 0.2
28/11:30am 14.9 11.0 10.9 77 2.2 WNW 22 32 12 17 1021.6 - 0.2
28/11:00am 13.8 9.8 10.6 81 1.7 WNW 22 32 12 17 1021.9 1022.1 0.2
28/10:30am 13.2 9.8 10.7 85 1.3 WNW 19 28 10 15 1021.8 - 0.0
28/10:00am 12.2 8.1 10.1 87 1.1 WNW 22 32 12 17 1022.0 1022.2 0.0
28/09:30am 12.0 8.5 10.1 88 1.0 WNW 19 30 10 16 1021.9 - 0.0
28/09:00am 11.5 7.4 10.1 91 0.7 WNW 22 32 12 17 1021.6 1021.8 0.0
28/08:30am 10.6 7.0 9.7 94 0.5 NW 19 28 10 15 1021.3 - 0.0
28/08:00am 10.1 6.7 9.3 95 0.4 NW 17 24 9 13 1020.9 1021.1 0.0
28/07:30am 9.4 6.6 8.6 95 0.4 NNW 13 17 7 9 1020.6 - 0.0
28/07:00am 9.4 6.2 8.6 95 0.4 NW 15 20 8 11 1020.3 1020.6 0.0
28/06:30am 9.2 6.7 8.4 95 0.4 NNW 11 20 6 11 1020.0 - 0.0
28/06:00am 9.5 6.7 8.7 95 0.4 NW 13 19 7 10 1019.9 1020.2 0.0
28/05:30am 9.6 6.5 8.8 95 0.4 NNW 15 22 8 12 1019.7 - 0.0
28/05:00am 9.4 6.6 8.6 95 0.4 NW 13 22 7 12 1019.7 1019.9 0.0
28/04:30am 9.3 6.1 8.5 95 0.4 NW 15 20 8 11 1019.6 - 0.0
28/04:00am 8.6 6.0 7.7 94 0.4 NNW 11 15 6 8 1019.7 1019.9 0.0
28/03:30am 9.1 6.6 8.0 93 0.5 NNW 11 15 6 8 1019.7 - 0.0
28/03:00am 10.0 7.3 8.9 93 0.5 NW 13 19 7 10 1019.9 1020.2 0.0
28/02:30am 10.1 7.1 9.2 94 0.5 NW 15 20 8 11 1020.0 - 0.0
28/02:00am 9.8 7.1 8.9 94 0.4 NW 13 19 7 10 1020.4 1020.7 0.0
28/01:30am 9.3 6.8 8.4 94 0.4 NW 11 15 6 8 1020.4 - 0.0
28/01:00am 9.3 6.4 8.2 93 0.5 NNW 13 17 7 9 1020.2 1020.5 0.0
28/12:30am 9.6 6.8 8.5 93 0.5 WNW 13 19 7 10 1020.7 - 0.0
28/12:00am 9.7 7.0 8.8 94 0.4 NW 13 24 7 13 1020.9 1021.1 0.0
 
Date/Time
WST
Temp
°C
App
Temp
°C
Dew
Point
Rel
Hum
%
Delta-T
°C
Wind Press
QNH
hPa
Press
MSL
hPa
Rain
since 9 am
mm
Dir
 
Spd
km/h
Gust
km/h
Spd
kts
Gust
kts
27/11:30pm 9.5 6.7 8.4 93 0.5 NW 13 20 7 11 1020.9 - 0.0
27/11:00pm 9.6 6.8 8.5 93 0.5 NW 13 19 7 10 1021.1 1021.3 0.0
27/10:30pm 9.9 7.1 8.7 92 0.6 NW 13 19 7 10 1021.2 - 0.0
27/10:00pm 10.0 7.5 8.4 90 0.8 NNW 11 15 6 8 1021.3 1021.5 0.0
27/09:30pm 10.9 8.5 8.8 87 1.1 NW 11 17 6 9 1021.3 - 0.0
27/09:00pm 11.6 8.5 9.0 84 1.3 WNW 15 20 8 11 1021.2 1021.4 0.0
27/08:30pm 12.1 9.1 9.3 83 1.4 WNW 15 22 8 12 1021.0 - 0.0
27/08:00pm 11.7 9.1 9.3 85 1.2 WNW 13 17 7 9 1020.9 1021.1 0.0
27/07:30pm 12.1 9.4 9.1 82 1.5 WNW 13 19 7 10 1020.8 - 0.0

Other Formats:

Comma delimited format used in spreadsheet applications
http://www.bom.gov.au/fwo/IDW60801/IDW60801.95637.axf

JavaScript Object Notation format (JSON) in row-major order
http://www.bom.gov.au/fwo/IDW60801/IDW60801.95637.json